sensor_id;sensor_type;location;lat;lon;timestamp;temperature;humidity
26623;DHT22;14254;50.968;5.366;2022-09-09T00:01:08;15.50;99.90
26623;DHT22;14254;50.968;5.366;2022-09-09T00:03:54;15.50;99.90
26623;DHT22;14254;50.968;5.366;2022-09-09T00:06:42;15.40;99.90
26623;DHT22;14254;50.968;5.366;2022-09-09T00:09:16;15.40;99.90
26623;DHT22;14254;50.968;5.366;2022-09-09T00:11:58;15.30;99.90
26623;DHT22;14254;50.968;5.366;2022-09-09T00:17:36;15.30;99.90
26623;DHT22;14254;50.968;5.366;2022-09-09T00:20:26;15.20;99.90
26623;DHT22;14254;50.968;5.366;2022-09-09T00:23:00;15.20;99.90
26623;DHT22;14254;50.968;5.366;2022-09-09T00:25:40;15.20;99.90
26623;DHT22;14254;50.968;5.366;2022-09-09T00:28:18;15.20;99.90
26623;DHT22;14254;50.968;5.366;2022-09-09T00:30:43;15.10;99.90
26623;DHT22;14254;50.968;5.366;2022-09-09T00:33:16;15.10;99.90
26623;DHT22;14254;50.968;5.366;2022-09-09T00:35:58;15.00;99.90
26623;DHT22;14254;50.968;5.366;2022-09-09T00:38:38;15.00;99.90
26623;DHT22;14254;50.968;5.366;2022-09-09T00:41:21;14.90;99.90
26623;DHT22;14254;50.968;5.366;2022-09-09T00:44:03;14.90;99.90
26623;DHT22;14254;50.968;5.366;2022-09-09T00:46:47;14.70;99.90
26623;DHT22;14254;50.968;5.366;2022-09-09T00:49:44;14.70;99.90
26623;DHT22;14254;50.968;5.366;2022-09-09T00:57:30;14.60;99.90
26623;DHT22;14254;50.968;5.366;2022-09-09T01:11:00;14.50;99.90
26623;DHT22;14254;50.968;5.366;2022-09-09T01:13:32;14.50;99.90
26623;DHT22;14254;50.968;5.366;2022-09-09T01:16:04;14.50;99.90
26623;DHT22;14254;50.968;5.366;2022-09-09T01:18:49;14.50;99.90
26623;DHT22;14254;50.968;5.366;2022-09-09T01:26:56;14.60;99.90
26623;DHT22;14254;50.968;5.366;2022-09-09T01:29:22;14.60;99.90
26623;DHT22;14254;50.968;5.366;2022-09-09T01:31:58;14.70;99.90
26623;DHT22;14254;50.968;5.366;2022-09-09T01:34:29;14.70;99.90
26623;DHT22;14254;50.968;5.366;2022-09-09T01:37:05;14.70;99.90
26623;DHT22;14254;50.968;5.366;2022-09-09T01:39:33;14.80;99.90
26623;DHT22;14254;50.968;5.366;2022-09-09T01:41:59;14.80;99.90
26623;DHT22;14254;50.968;5.366;2022-09-09T01:44:25;14.80;99.90
26623;DHT22;14254;50.968;5.366;2022-09-09T01:46:52;14.80;99.90
26623;DHT22;14254;50.968;5.366;2022-09-09T01:49:18;14.70;99.90
26623;DHT22;14254;50.968;5.366;2022-09-09T01:51:45;14.80;99.90
26623;DHT22;14254;50.968;5.366;2022-09-09T01:54:12;14.80;99.90
26623;DHT22;14254;50.968;5.366;2022-09-09T02:02:33;14.80;99.90
26623;DHT22;14254;50.968;5.366;2022-09-09T02:08:09;14.90;99.90
26623;DHT22;14254;50.968;5.366;2022-09-09T02:13:05;15.10;99.90
26623;DHT22;14254;50.968;5.366;2022-09-09T02:21:13;15.00;99.90
26623;DHT22;14254;50.968;5.366;2022-09-09T02:23:41;15.10;99.90
26623;DHT22;14254;50.968;5.366;2022-09-09T02:26:09;15.10;99.90
26623;DHT22;14254;50.968;5.366;2022-09-09T02:28:37;15.20;99.90
26623;DHT22;14254;50.968;5.366;2022-09-09T02:31:04;15.20;99.90
26623;DHT22;14254;50.968;5.366;2022-09-09T02:33:35;15.20;99.90
26623;DHT22;14254;50.968;5.366;2022-09-09T02:36:03;15.30;99.90
26623;DHT22;14254;50.968;5.366;2022-09-09T02:38:35;15.30;99.90
26623;DHT22;14254;50.968;5.366;2022-09-09T02:41:02;15.20;99.90
26623;DHT22;14254;50.968;5.366;2022-09-09T02:43:33;15.10;99.90
26623;DHT22;14254;50.968;5.366;2022-09-09T02:49:08;15.00;99.90
26623;DHT22;14254;50.968;5.366;2022-09-09T02:51:56;15.10;99.90
26623;DHT22;14254;50.968;5.366;2022-09-09T02:54:31;15.10;99.90
26623;DHT22;14254;50.968;5.366;2022-09-09T02:57:16;15.20;99.90
26623;DHT22;14254;50.968;5.366;2022-09-09T02:59:43;15.20;99.90
26623;DHT22;14254;50.968;5.366;2022-09-09T03:02:09;15.20;99.90
26623;DHT22;14254;50.968;5.366;2022-09-09T03:04:37;15.20;99.90
26623;DHT22;14254;50.968;5.366;2022-09-09T03:07:03;15.30;99.90
26623;DHT22;14254;50.968;5.366;2022-09-09T03:09:30;15.20;99.90
26623;DHT22;14254;50.968;5.366;2022-09-09T03:11:56;15.30;99.90
26623;DHT22;14254;50.968;5.366;2022-09-09T03:14:22;15.20;99.90
26623;DHT22;14254;50.968;5.366;2022-09-09T03:16:53;15.10;99.90
26623;DHT22;14254;50.968;5.366;2022-09-09T03:19:20;15.10;99.90
26623;DHT22;14254;50.968;5.366;2022-09-09T03:21:47;15.20;99.90
26623;DHT22;14254;50.968;5.366;2022-09-09T03:24:13;15.20;99.90
26623;DHT22;14254;50.968;5.366;2022-09-09T03:26:39;15.30;99.90
26623;DHT22;14254;50.968;5.366;2022-09-09T03:29:06;15.20;99.90
26623;DHT22;14254;50.968;5.366;2022-09-09T03:31:33;15.20;99.90
26623;DHT22;14254;50.968;5.366;2022-09-09T03:33:59;15.30;99.90
26623;DHT22;14254;50.968;5.366;2022-09-09T03:36:25;15.40;99.90
26623;DHT22;14254;50.968;5.366;2022-09-09T03:38:52;15.40;99.90
26623;DHT22;14254;50.968;5.366;2022-09-09T03:41:19;15.50;99.90
26623;DHT22;14254;50.968;5.366;2022-09-09T03:43:45;15.60;99.90
26623;DHT22;14254;50.968;5.366;2022-09-09T03:46:10;15.50;99.90
26623;DHT22;14254;50.968;5.366;2022-09-09T03:48:36;15.50;99.90
26623;DHT22;14254;50.968;5.366;2022-09-09T03:51:02;15.50;99.90
26623;DHT22;14254;50.968;5.366;2022-09-09T03:53:28;15.50;99.90
26623;DHT22;14254;50.968;5.366;2022-09-09T03:55:55;15.60;99.90
26623;DHT22;14254;50.968;5.366;2022-09-09T03:58:22;15.50;99.90
26623;DHT22;14254;50.968;5.366;2022-09-09T04:00:54;15.50;99.90
26623;DHT22;14254;50.968;5.366;2022-09-09T04:03:20;15.40;99.90
26623;DHT22;14254;50.968;5.366;2022-09-09T04:05:48;15.30;99.90
26623;DHT22;14254;50.968;5.366;2022-09-09T04:08:14;15.40;99.90
26623;DHT22;14254;50.968;5.366;2022-09-09T04:10:40;15.40;99.90
26623;DHT22;14254;50.968;5.366;2022-09-09T04:13:07;15.40;99.90
26623;DHT22;14254;50.968;5.366;2022-09-09T04:15:33;15.40;99.90
26623;DHT22;14254;50.968;5.366;2022-09-09T04:18:01;15.50;99.90
26623;DHT22;14254;50.968;5.366;2022-09-09T04:20:26;15.40;99.90
26623;DHT22;14254;50.968;5.366;2022-09-09T04:22:52;15.20;99.90
26623;DHT22;14254;50.968;5.366;2022-09-09T04:25:17;15.30;99.90
26623;DHT22;14254;50.968;5.366;2022-09-09T04:27:43;15.20;99.90
26623;DHT22;14254;50.968;5.366;2022-09-09T04:30:10;15.30;99.90
26623;DHT22;14254;50.968;5.366;2022-09-09T04:32:35;15.40;99.90
26623;DHT22;14254;50.968;5.366;2022-09-09T04:35:02;15.40;99.90
26623;DHT22;14254;50.968;5.366;2022-09-09T04:37:28;15.40;99.90
26623;DHT22;14254;50.968;5.366;2022-09-09T04:39:54;15.40;99.90
26623;DHT22;14254;50.968;5.366;2022-09-09T04:42:19;15.40;99.90
26623;DHT22;14254;50.968;5.366;2022-09-09T04:44:45;15.30;99.90
26623;DHT22;14254;50.968;5.366;2022-09-09T04:47:11;15.30;99.90
26623;DHT22;14254;50.968;5.366;2022-09-09T04:49:37;15.30;99.90
26623;DHT22;14254;50.968;5.366;2022-09-09T04:52:04;15.30;99.90
26623;DHT22;14254;50.968;5.366;2022-09-09T04:54:30;15.20;99.90
26623;DHT22;14254;50.968;5.366;2022-09-09T04:56:55;15.20;99.90
26623;DHT22;14254;50.968;5.366;2022-09-09T04:59:21;15.20;99.90
26623;DHT22;14254;50.968;5.366;2022-09-09T05:01:48;15.10;99.90
26623;DHT22;14254;50.968;5.366;2022-09-09T05:04:14;15.10;99.90
26623;DHT22;14254;50.968;5.366;2022-09-09T05:06:41;15.20;99.90
26623;DHT22;14254;50.968;5.366;2022-09-09T05:09:08;15.20;99.90
26623;DHT22;14254;50.968;5.366;2022-09-09T05:11:34;15.20;99.90
26623;DHT22;14254;50.968;5.366;2022-09-09T05:14:04;15.20;99.90
26623;DHT22;14254;50.968;5.366;2022-09-09T05:16:30;15.10;99.90
26623;DHT22;14254;50.968;5.366;2022-09-09T05:18:56;15.10;99.90
26623;DHT22;14254;50.968;5.366;2022-09-09T05:21:23;15.10;99.90
26623;DHT22;14254;50.968;5.366;2022-09-09T05:23:50;15.10;99.90
26623;DHT22;14254;50.968;5.366;2022-09-09T05:26:20;15.20;99.90
26623;DHT22;14254;50.968;5.366;2022-09-09T05:28:47;15.30;99.90
26623;DHT22;14254;50.968;5.366;2022-09-09T05:31:14;15.30;99.90
26623;DHT22;14254;50.968;5.366;2022-09-09T05:33:41;15.30;99.90
26623;DHT22;14254;50.968;5.366;2022-09-09T05:36:10;15.30;99.90
26623;DHT22;14254;50.968;5.366;2022-09-09T05:38:39;15.30;99.90
26623;DHT22;14254;50.968;5.366;2022-09-09T05:41:06;15.40;99.90
26623;DHT22;14254;50.968;5.366;2022-09-09T05:43:33;15.50;99.90
26623;DHT22;14254;50.968;5.366;2022-09-09T05:46:09;15.60;99.90
26623;DHT22;14254;50.968;5.366;2022-09-09T05:48:37;15.70;99.90
26623;DHT22;14254;50.968;5.366;2022-09-09T05:51:04;15.90;99.90
26623;DHT22;14254;50.968;5.366;2022-09-09T05:53:32;15.90;99.90
26623;DHT22;14254;50.968;5.366;2022-09-09T05:56:09;15.90;99.90
26623;DHT22;14254;50.968;5.366;2022-09-09T05:58:42;15.90;99.90
26623;DHT22;14254;50.968;5.366;2022-09-09T06:01:11;16.10;99.90
26623;DHT22;14254;50.968;5.366;2022-09-09T06:03:39;16.10;99.90
26623;DHT22;14254;50.968;5.366;2022-09-09T06:06:07;16.20;99.90
26623;DHT22;14254;50.968;5.366;2022-09-09T06:08:34;16.30;99.90
26623;DHT22;14254;50.968;5.366;2022-09-09T06:13:39;16.30;99.90
26623;DHT22;14254;50.968;5.366;2022-09-09T06:16:07;16.30;99.90
26623;DHT22;14254;50.968;5.366;2022-09-09T06:18:33;16.50;99.90
26623;DHT22;14254;50.968;5.366;2022-09-09T06:21:00;16.40;99.90
26623;DHT22;14254;50.968;5.366;2022-09-09T06:23:27;16.40;99.90
26623;DHT22;14254;50.968;5.366;2022-09-09T06:26:05;16.60;99.90
26623;DHT22;14254;50.968;5.366;2022-09-09T06:28:32;16.60;99.90
26623;DHT22;14254;50.968;5.366;2022-09-09T06:31:01;16.60;99.90
26623;DHT22;14254;50.968;5.366;2022-09-09T06:33:31;16.70;99.90
26623;DHT22;14254;50.968;5.366;2022-09-09T06:35:57;16.80;99.90
26623;DHT22;14254;50.968;5.366;2022-09-09T06:38:23;16.80;99.90
26623;DHT22;14254;50.968;5.366;2022-09-09T06:40:57;16.70;99.90
26623;DHT22;14254;50.968;5.366;2022-09-09T06:43:24;16.70;99.90
26623;DHT22;14254;50.968;5.366;2022-09-09T06:46:01;16.70;99.90
26623;DHT22;14254;50.968;5.366;2022-09-09T06:48:28;16.70;99.90
26623;DHT22;14254;50.968;5.366;2022-09-09T06:51:01;16.80;99.90
26623;DHT22;14254;50.968;5.366;2022-09-09T06:53:28;17.00;99.90
26623;DHT22;14254;50.968;5.366;2022-09-09T06:55:53;17.10;99.90
26623;DHT22;14254;50.968;5.366;2022-09-09T06:58:20;17.20;99.90
26623;DHT22;14254;50.968;5.366;2022-09-09T07:00:47;17.30;99.90
26623;DHT22;14254;50.968;5.366;2022-09-09T07:03:13;17.60;99.90
26623;DHT22;14254;50.968;5.366;2022-09-09T07:05:39;17.70;99.90
26623;DHT22;14254;50.968;5.366;2022-09-09T07:08:04;17.80;99.90
26623;DHT22;14254;50.968;5.366;2022-09-09T07:10:31;17.90;99.90
26623;DHT22;14254;50.968;5.366;2022-09-09T07:12:57;17.70;99.90
26623;DHT22;14254;50.968;5.366;2022-09-09T07:15:22;17.50;99.90
26623;DHT22;14254;50.968;5.366;2022-09-09T07:17:48;17.70;99.90
26623;DHT22;14254;50.968;5.366;2022-09-09T07:20:14;17.70;99.90
26623;DHT22;14254;50.968;5.366;2022-09-09T07:22:41;17.90;99.90
26623;DHT22;14254;50.968;5.366;2022-09-09T07:25:07;17.90;99.90
26623;DHT22;14254;50.968;5.366;2022-09-09T07:27:33;18.10;99.90
26623;DHT22;14254;50.968;5.366;2022-09-09T07:29:59;18.20;99.90
26623;DHT22;14254;50.968;5.366;2022-09-09T07:32:24;18.40;99.90
26623;DHT22;14254;50.968;5.366;2022-09-09T07:34:51;18.60;99.90
26623;DHT22;14254;50.968;5.366;2022-09-09T07:37:17;18.60;99.90
26623;DHT22;14254;50.968;5.366;2022-09-09T07:39:43;18.60;99.90
26623;DHT22;14254;50.968;5.366;2022-09-09T07:42:09;18.40;99.90
26623;DHT22;14254;50.968;5.366;2022-09-09T07:44:36;18.30;99.90
26623;DHT22;14254;50.968;5.366;2022-09-09T07:47:05;18.50;99.90
26623;DHT22;14254;50.968;5.366;2022-09-09T07:49:30;18.70;99.90
26623;DHT22;14254;50.968;5.366;2022-09-09T07:51:57;18.80;99.90
26623;DHT22;14254;50.968;5.366;2022-09-09T07:54:23;19.00;99.90
26623;DHT22;14254;50.968;5.366;2022-09-09T07:56:50;18.90;99.90
26623;DHT22;14254;50.968;5.366;2022-09-09T07:59:16;18.90;99.90
26623;DHT22;14254;50.968;5.366;2022-09-09T08:01:51;18.80;99.90
26623;DHT22;14254;50.968;5.366;2022-09-09T08:04:20;18.60;99.90
26623;DHT22;14254;50.968;5.366;2022-09-09T08:09:14;18.20;99.90
26623;DHT22;14254;50.968;5.366;2022-09-09T08:11:40;18.10;99.90
26623;DHT22;14254;50.968;5.366;2022-09-09T08:14:07;18.10;99.90
26623;DHT22;14254;50.968;5.366;2022-09-09T08:16:35;18.20;99.90
26623;DHT22;14254;50.968;5.366;2022-09-09T08:19:02;18.20;99.90
26623;DHT22;14254;50.968;5.366;2022-09-09T08:21:30;18.20;99.90
26623;DHT22;14254;50.968;5.366;2022-09-09T08:23:59;18.10;99.90
26623;DHT22;14254;50.968;5.366;2022-09-09T08:26:29;18.10;99.90
26623;DHT22;14254;50.968;5.366;2022-09-09T08:28:58;18.00;99.90
26623;DHT22;14254;50.968;5.366;2022-09-09T08:31:30;17.90;99.90
26623;DHT22;14254;50.968;5.366;2022-09-09T08:33:57;18.00;99.90
26623;DHT22;14254;50.968;5.366;2022-09-09T08:36:26;18.00;99.90
26623;DHT22;14254;50.968;5.366;2022-09-09T08:38:55;18.00;99.90
26623;DHT22;14254;50.968;5.366;2022-09-09T08:52:08;17.90;99.90
26623;DHT22;14254;50.968;5.366;2022-09-09T08:54:37;17.90;99.90
26623;DHT22;14254;50.968;5.366;2022-09-09T08:57:15;18.00;99.90
26623;DHT22;14254;50.968;5.366;2022-09-09T08:59:42;17.90;99.90
26623;DHT22;14254;50.968;5.366;2022-09-09T09:02:22;17.70;99.90
26623;DHT22;14254;50.968;5.366;2022-09-09T09:11:10;17.30;99.90
26623;DHT22;14254;50.968;5.366;2022-09-09T09:16:22;17.40;99.90
26623;DHT22;14254;50.968;5.366;2022-09-09T09:18:49;17.50;99.90
26623;DHT22;14254;50.968;5.366;2022-09-09T09:21:41;17.60;99.90
26623;DHT22;14254;50.968;5.366;2022-09-09T09:24:11;17.70;99.90
26623;DHT22;14254;50.968;5.366;2022-09-09T09:26:43;17.70;99.90
26623;DHT22;14254;50.968;5.366;2022-09-09T09:29:15;17.90;99.90
26623;DHT22;14254;50.968;5.366;2022-09-09T09:31:48;18.00;99.90
26623;DHT22;14254;50.968;5.366;2022-09-09T09:34:16;18.10;99.90
26623;DHT22;14254;50.968;5.366;2022-09-09T09:37:01;18.30;99.90
26623;DHT22;14254;50.968;5.366;2022-09-09T09:39:33;18.40;99.90
26623;DHT22;14254;50.968;5.366;2022-09-09T09:42:11;18.50;99.90
26623;DHT22;14254;50.968;5.366;2022-09-09T09:44:39;18.50;99.90
26623;DHT22;14254;50.968;5.366;2022-09-09T09:47:18;18.50;99.90
26623;DHT22;14254;50.968;5.366;2022-09-09T09:50:00;18.70;99.90
26623;DHT22;14254;50.968;5.366;2022-09-09T09:52:29;18.90;99.90
26623;DHT22;14254;50.968;5.366;2022-09-09T09:54:57;18.90;99.90
26623;DHT22;14254;50.968;5.366;2022-09-09T09:57:27;18.90;99.90
26623;DHT22;14254;50.968;5.366;2022-09-09T10:00:16;18.90;99.90
26623;DHT22;14254;50.968;5.366;2022-09-09T10:02:44;19.00;99.90
26623;DHT22;14254;50.968;5.366;2022-09-09T10:05:19;18.90;99.90
26623;DHT22;14254;50.968;5.366;2022-09-09T10:07:46;18.70;99.90
26623;DHT22;14254;50.968;5.366;2022-09-09T10:10:26;18.40;99.90
26623;DHT22;14254;50.968;5.366;2022-09-09T10:13:38;18.00;99.90
26623;DHT22;14254;50.968;5.366;2022-09-09T10:19:17;17.00;99.90
26623;DHT22;14254;50.968;5.366;2022-09-09T10:22:25;16.90;99.90
26623;DHT22;14254;50.968;5.366;2022-09-09T10:35:58;16.40;99.90
26623;DHT22;14254;50.968;5.366;2022-09-09T10:38:40;16.40;99.90
26623;DHT22;14254;50.968;5.366;2022-09-09T10:44:06;16.40;99.90
26623;DHT22;14254;50.968;5.366;2022-09-09T10:51:56;16.20;99.90
26623;DHT22;14254;50.968;5.366;2022-09-09T10:54:32;16.40;99.90
26623;DHT22;14254;50.968;5.366;2022-09-09T10:57:13;16.50;99.90
26623;DHT22;14254;50.968;5.366;2022-09-09T10:59:47;16.70;99.90
26623;DHT22;14254;50.968;5.366;2022-09-09T11:02:16;16.90;99.90
26623;DHT22;14254;50.968;5.366;2022-09-09T11:04:49;17.10;99.90
26623;DHT22;14254;50.968;5.366;2022-09-09T11:07:33;17.10;99.90
26623;DHT22;14254;50.968;5.366;2022-09-09T11:10:05;17.40;99.90
26623;DHT22;14254;50.968;5.366;2022-09-09T11:12:34;17.60;99.90
26623;DHT22;14254;50.968;5.366;2022-09-09T11:15:13;17.70;99.90
26623;DHT22;14254;50.968;5.366;2022-09-09T11:17:58;17.70;99.90
26623;DHT22;14254;50.968;5.366;2022-09-09T11:20:25;17.60;99.90
26623;DHT22;14254;50.968;5.366;2022-09-09T11:25:28;17.80;99.90
26623;DHT22;14254;50.968;5.366;2022-09-09T11:36:31;18.10;99.90
26623;DHT22;14254;50.968;5.366;2022-09-09T11:41:50;18.10;99.90
26623;DHT22;14254;50.968;5.366;2022-09-09T11:44:29;18.50;99.90
26623;DHT22;14254;50.968;5.366;2022-09-09T11:46:55;18.80;99.90
26623;DHT22;14254;50.968;5.366;2022-09-09T11:49:29;18.80;99.90
26623;DHT22;14254;50.968;5.366;2022-09-09T11:52:34;18.60;99.90
26623;DHT22;14254;50.968;5.366;2022-09-09T11:55:09;18.70;99.90
26623;DHT22;14254;50.968;5.366;2022-09-09T11:57:37;18.70;99.90
26623;DHT22;14254;50.968;5.366;2022-09-09T12:00:04;18.40;99.90
26623;DHT22;14254;50.968;5.366;2022-09-09T12:02:30;18.40;99.90
26623;DHT22;14254;50.968;5.366;2022-09-09T12:05:08;18.50;99.90
26623;DHT22;14254;50.968;5.366;2022-09-09T12:07:41;18.50;99.90
26623;DHT22;14254;50.968;5.366;2022-09-09T12:10:34;18.60;99.90
26623;DHT22;14254;50.968;5.366;2022-09-09T12:13:18;18.40;99.90
26623;DHT22;14254;50.968;5.366;2022-09-09T12:16:01;18.20;99.90
26623;DHT22;14254;50.968;5.366;2022-09-09T12:18:35;18.20;99.90
26623;DHT22;14254;50.968;5.366;2022-09-09T12:24:14;18.20;99.90
26623;DHT22;14254;50.968;5.366;2022-09-09T12:29:32;18.20;99.90
26623;DHT22;14254;50.968;5.366;2022-09-09T12:37:29;18.10;99.90
26623;DHT22;14254;50.968;5.366;2022-09-09T12:39:59;18.50;99.90
26623;DHT22;14254;50.968;5.366;2022-09-09T12:42:26;18.90;99.90
26623;DHT22;14254;50.968;5.366;2022-09-09T12:45:00;19.70;99.90
26623;DHT22;14254;50.968;5.366;2022-09-09T12:47:36;21.20;99.90
26623;DHT22;14254;50.968;5.366;2022-09-09T12:50:04;23.00;99.90
26623;DHT22;14254;50.968;5.366;2022-09-09T12:52:33;23.60;99.90
26623;DHT22;14254;50.968;5.366;2022-09-09T12:55:02;24.30;99.90
26623;DHT22;14254;50.968;5.366;2022-09-09T12:57:34;25.20;99.90
26623;DHT22;14254;50.968;5.366;2022-09-09T13:00:22;25.20;99.90
26623;DHT22;14254;50.968;5.366;2022-09-09T13:02:49;25.00;99.90
26623;DHT22;14254;50.968;5.366;2022-09-09T13:05:19;25.10;99.90
26623;DHT22;14254;50.968;5.366;2022-09-09T13:07:45;24.50;99.90
26623;DHT22;14254;50.968;5.366;2022-09-09T13:10:13;24.10;99.90
26623;DHT22;14254;50.968;5.366;2022-09-09T13:12:39;23.10;99.90
26623;DHT22;14254;50.968;5.366;2022-09-09T13:15:14;22.70;99.90
26623;DHT22;14254;50.968;5.366;2022-09-09T13:17:42;23.30;99.90
26623;DHT22;14254;50.968;5.366;2022-09-09T13:20:17;23.30;99.90
26623;DHT22;14254;50.968;5.366;2022-09-09T13:22:43;22.70;99.90
26623;DHT22;14254;50.968;5.366;2022-09-09T13:27:40;22.20;99.90
26623;DHT22;14254;50.968;5.366;2022-09-09T13:33:18;21.80;99.90
26623;DHT22;14254;50.968;5.366;2022-09-09T13:35:56;21.80;99.90
26623;DHT22;14254;50.968;5.366;2022-09-09T13:38:22;21.80;99.90
26623;DHT22;14254;50.968;5.366;2022-09-09T13:41:05;21.80;99.90
26623;DHT22;14254;50.968;5.366;2022-09-09T13:43:37;21.40;99.90
26623;DHT22;14254;50.968;5.366;2022-09-09T13:46:20;21.60;99.90
26623;DHT22;14254;50.968;5.366;2022-09-09T13:49:40;21.70;99.90
26623;DHT22;14254;50.968;5.366;2022-09-09T13:51:46;21.80;99.90
26623;DHT22;14254;50.968;5.366;2022-09-09T13:54:12;22.10;99.90
26623;DHT22;14254;50.968;5.366;2022-09-09T13:56:39;22.10;99.90
26623;DHT22;14254;50.968;5.366;2022-09-09T13:59:24;22.00;99.90
26623;DHT22;14254;50.968;5.366;2022-09-09T14:01:51;22.00;99.90
26623;DHT22;14254;50.968;5.366;2022-09-09T14:04:18;21.80;99.90
26623;DHT22;14254;50.968;5.366;2022-09-09T14:06:46;21.70;99.90
26623;DHT22;14254;50.968;5.366;2022-09-09T14:09:14;22.40;99.90
26623;DHT22;14254;50.968;5.366;2022-09-09T14:11:41;22.90;99.90
26623;DHT22;14254;50.968;5.366;2022-09-09T14:14:07;23.30;99.90
26623;DHT22;14254;50.968;5.366;2022-09-09T14:16:33;23.10;99.90
26623;DHT22;14254;50.968;5.366;2022-09-09T14:18:59;22.80;99.90
26623;DHT22;14254;50.968;5.366;2022-09-09T14:21:25;22.60;99.90
26623;DHT22;14254;50.968;5.366;2022-09-09T14:23:52;22.60;99.90
26623;DHT22;14254;50.968;5.366;2022-09-09T14:26:21;22.60;99.90
26623;DHT22;14254;50.968;5.366;2022-09-09T14:28:47;22.50;99.90
26623;DHT22;14254;50.968;5.366;2022-09-09T14:31:13;22.10;99.90
26623;DHT22;14254;50.968;5.366;2022-09-09T14:33:40;21.80;99.90
26623;DHT22;14254;50.968;5.366;2022-09-09T14:36:06;21.50;99.90
26623;DHT22;14254;50.968;5.366;2022-09-09T14:38:34;21.10;99.90
26623;DHT22;14254;50.968;5.366;2022-09-09T14:41:09;22.20;99.90
26623;DHT22;14254;50.968;5.366;2022-09-09T14:43:37;23.80;99.90
26623;DHT22;14254;50.968;5.366;2022-09-09T14:46:11;23.90;99.90
26623;DHT22;14254;50.968;5.366;2022-09-09T14:48:37;23.80;99.90
26623;DHT22;14254;50.968;5.366;2022-09-09T14:51:17;24.20;99.90
26623;DHT22;14254;50.968;5.366;2022-09-09T14:53:43;25.20;99.90
26623;DHT22;14254;50.968;5.366;2022-09-09T14:56:12;26.70;99.90
26623;DHT22;14254;50.968;5.366;2022-09-09T14:58:38;27.80;99.90
26623;DHT22;14254;50.968;5.366;2022-09-09T15:01:06;28.10;98.80
26623;DHT22;14254;50.968;5.366;2022-09-09T15:03:32;28.70;97.80
26623;DHT22;14254;50.968;5.366;2022-09-09T15:05:57;28.40;97.80
26623;DHT22;14254;50.968;5.366;2022-09-09T15:08:26;27.80;98.90
26623;DHT22;14254;50.968;5.366;2022-09-09T15:10:59;26.50;99.90
26623;DHT22;14254;50.968;5.366;2022-09-09T15:13:25;25.90;99.90
26623;DHT22;14254;50.968;5.366;2022-09-09T15:15:51;25.80;99.90
26623;DHT22;14254;50.968;5.366;2022-09-09T15:18:17;26.60;99.90
26623;DHT22;14254;50.968;5.366;2022-09-09T15:20:46;25.40;99.90
26623;DHT22;14254;50.968;5.366;2022-09-09T15:23:13;25.30;99.90
26623;DHT22;14254;50.968;5.366;2022-09-09T15:25:53;25.20;99.90
26623;DHT22;14254;50.968;5.366;2022-09-09T15:28:19;24.80;99.90
26623;DHT22;14254;50.968;5.366;2022-09-09T15:30:48;24.10;99.90
26623;DHT22;14254;50.968;5.366;2022-09-09T15:33:13;23.60;99.90
26623;DHT22;14254;50.968;5.366;2022-09-09T15:35:39;23.30;99.90
26623;DHT22;14254;50.968;5.366;2022-09-09T15:38:05;23.00;99.90
26623;DHT22;14254;50.968;5.366;2022-09-09T15:40:31;22.80;99.90
26623;DHT22;14254;50.968;5.366;2022-09-09T15:42:59;22.80;99.90
26623;DHT22;14254;50.968;5.366;2022-09-09T15:45:25;22.90;99.90
26623;DHT22;14254;50.968;5.366;2022-09-09T15:47:52;23.00;99.90
26623;DHT22;14254;50.968;5.366;2022-09-09T15:50:17;23.30;99.90
26623;DHT22;14254;50.968;5.366;2022-09-09T15:52:43;24.30;99.90
26623;DHT22;14254;50.968;5.366;2022-09-09T15:55:09;25.00;99.90
26623;DHT22;14254;50.968;5.366;2022-09-09T15:57:35;24.60;99.90
26623;DHT22;14254;50.968;5.366;2022-09-09T16:00:03;23.80;99.90
26623;DHT22;14254;50.968;5.366;2022-09-09T16:02:30;24.10;99.90
26623;DHT22;14254;50.968;5.366;2022-09-09T16:04:56;24.60;99.90
26623;DHT22;14254;50.968;5.366;2022-09-09T16:07:23;24.90;99.90
26623;DHT22;14254;50.968;5.366;2022-09-09T16:09:48;24.60;99.90
26623;DHT22;14254;50.968;5.366;2022-09-09T16:12:16;24.10;99.90
26623;DHT22;14254;50.968;5.366;2022-09-09T16:14:42;23.60;99.90
26623;DHT22;14254;50.968;5.366;2022-09-09T16:17:08;22.90;99.90
26623;DHT22;14254;50.968;5.366;2022-09-09T16:19:33;22.70;99.90
26623;DHT22;14254;50.968;5.366;2022-09-09T16:22:00;22.40;99.90
26623;DHT22;14254;50.968;5.366;2022-09-09T16:24:26;22.10;99.90
26623;DHT22;14254;50.968;5.366;2022-09-09T16:26:53;22.00;99.90
26623;DHT22;14254;50.968;5.366;2022-09-09T16:29:20;21.60;99.90
26623;DHT22;14254;50.968;5.366;2022-09-09T16:31:47;21.60;99.90
26623;DHT22;14254;50.968;5.366;2022-09-09T16:34:14;21.60;99.90
26623;DHT22;14254;50.968;5.366;2022-09-09T16:36:42;21.50;99.90
26623;DHT22;14254;50.968;5.366;2022-09-09T16:39:10;21.20;99.90
26623;DHT22;14254;50.968;5.366;2022-09-09T16:41:37;21.10;99.90
26623;DHT22;14254;50.968;5.366;2022-09-09T16:44:05;20.90;99.90
26623;DHT22;14254;50.968;5.366;2022-09-09T16:46:33;20.70;99.90
26623;DHT22;14254;50.968;5.366;2022-09-09T16:49:01;20.70;99.90
26623;DHT22;14254;50.968;5.366;2022-09-09T16:51:29;21.40;99.90
26623;DHT22;14254;50.968;5.366;2022-09-09T16:53:58;22.80;99.90
26623;DHT22;14254;50.968;5.366;2022-09-09T16:56:26;24.30;99.90
26623;DHT22;14254;50.968;5.366;2022-09-09T16:58:54;23.90;99.90
26623;DHT22;14254;50.968;5.366;2022-09-09T17:01:24;23.40;99.90
26623;DHT22;14254;50.968;5.366;2022-09-09T17:03:57;22.30;99.90
26623;DHT22;14254;50.968;5.366;2022-09-09T17:06:24;21.90;99.90
26623;DHT22;14254;50.968;5.366;2022-09-09T17:08:58;21.40;99.90
26623;DHT22;14254;50.968;5.366;2022-09-09T17:11:24;21.00;99.90
26623;DHT22;14254;50.968;5.366;2022-09-09T17:13:50;21.00;99.90
26623;DHT22;14254;50.968;5.366;2022-09-09T17:16:18;20.80;99.90
26623;DHT22;14254;50.968;5.366;2022-09-09T17:18:46;20.70;99.90
26623;DHT22;14254;50.968;5.366;2022-09-09T17:21:15;20.50;99.90
26623;DHT22;14254;50.968;5.366;2022-09-09T17:23:42;20.40;99.90
26623;DHT22;14254;50.968;5.366;2022-09-09T17:26:10;20.50;99.90
26623;DHT22;14254;50.968;5.366;2022-09-09T17:28:38;20.50;99.90
26623;DHT22;14254;50.968;5.366;2022-09-09T17:31:05;20.40;99.90
26623;DHT22;14254;50.968;5.366;2022-09-09T17:33:33;20.40;99.90
26623;DHT22;14254;50.968;5.366;2022-09-09T17:36:02;20.30;99.90
26623;DHT22;14254;50.968;5.366;2022-09-09T17:38:28;20.20;99.90
26623;DHT22;14254;50.968;5.366;2022-09-09T17:41:13;20.10;99.90
26623;DHT22;14254;50.968;5.366;2022-09-09T17:43:41;20.00;99.90
26623;DHT22;14254;50.968;5.366;2022-09-09T17:46:10;20.00;99.90
26623;DHT22;14254;50.968;5.366;2022-09-09T17:48:36;20.00;99.90
26623;DHT22;14254;50.968;5.366;2022-09-09T17:51:13;19.70;99.90